sensor_id;sensor_type;location;lat;lon;timestamp;temperature;humidity
20946;DHT22;10632;51.276;7.116;2022-10-16T00:01:30;13.10;99.90
20946;DHT22;10632;51.276;7.116;2022-10-16T00:04:00;13.00;99.90
20946;DHT22;10632;51.276;7.116;2022-10-16T00:06:31;13.00;99.90
20946;DHT22;10632;51.276;7.116;2022-10-16T00:08:58;13.00;99.90
20946;DHT22;10632;51.276;7.116;2022-10-16T00:11:27;13.10;99.90
20946;DHT22;10632;51.276;7.116;2022-10-16T00:14:02;13.10;99.90
20946;DHT22;10632;51.276;7.116;2022-10-16T00:16:29;13.10;99.90
20946;DHT22;10632;51.276;7.116;2022-10-16T00:18:59;13.10;99.90
20946;DHT22;10632;51.276;7.116;2022-10-16T00:21:31;13.10;99.90
20946;DHT22;10632;51.276;7.116;2022-10-16T00:23:59;13.20;99.90
20946;DHT22;10632;51.276;7.116;2022-10-16T00:26:34;13.20;99.90
20946;DHT22;10632;51.276;7.116;2022-10-16T00:29:06;13.20;99.90
20946;DHT22;10632;51.276;7.116;2022-10-16T00:31:34;13.20;99.90
20946;DHT22;10632;51.276;7.116;2022-10-16T00:34:01;13.20;99.90
20946;DHT22;10632;51.276;7.116;2022-10-16T00:36:28;13.20;99.90
20946;DHT22;10632;51.276;7.116;2022-10-16T00:38:57;13.20;99.90
20946;DHT22;10632;51.276;7.116;2022-10-16T00:41:26;13.20;99.90
20946;DHT22;10632;51.276;7.116;2022-10-16T00:43:55;13.20;99.90
20946;DHT22;10632;51.276;7.116;2022-10-16T00:46:25;13.20;99.90
20946;DHT22;10632;51.276;7.116;2022-10-16T00:48:59;13.20;99.90
20946;DHT22;10632;51.276;7.116;2022-10-16T00:51:34;13.20;99.90
20946;DHT22;10632;51.276;7.116;2022-10-16T00:54:12;13.20;99.90
20946;DHT22;10632;51.276;7.116;2022-10-16T00:56:40;13.20;99.90
20946;DHT22;10632;51.276;7.116;2022-10-16T00:59:14;13.20;99.90
20946;DHT22;10632;51.276;7.116;2022-10-16T01:01:43;13.20;99.90
20946;DHT22;10632;51.276;7.116;2022-10-16T01:04:12;13.20;99.90
20946;DHT22;10632;51.276;7.116;2022-10-16T01:06:46;13.10;99.90
20946;DHT22;10632;51.276;7.116;2022-10-16T01:09:19;13.20;99.90
20946;DHT22;10632;51.276;7.116;2022-10-16T01:11:55;13.10;99.90
20946;DHT22;10632;51.276;7.116;2022-10-16T01:14:37;13.10;99.90
20946;DHT22;10632;51.276;7.116;2022-10-16T01:17:15;13.10;99.90
20946;DHT22;10632;51.276;7.116;2022-10-16T01:20:09;13.10;99.90
20946;DHT22;10632;51.276;7.116;2022-10-16T01:22:43;13.10;99.90
20946;DHT22;10632;51.276;7.116;2022-10-16T01:25:18;13.10;99.90
20946;DHT22;10632;51.276;7.116;2022-10-16T01:27:50;13.00;99.90
20946;DHT22;10632;51.276;7.116;2022-10-16T01:30:23;13.00;99.90
20946;DHT22;10632;51.276;7.116;2022-10-16T01:32:56;13.00;99.90
20946;DHT22;10632;51.276;7.116;2022-10-16T01:35:27;13.00;99.90
20946;DHT22;10632;51.276;7.116;2022-10-16T01:38:01;13.00;99.90
20946;DHT22;10632;51.276;7.116;2022-10-16T01:40:31;13.00;99.90
20946;DHT22;10632;51.276;7.116;2022-10-16T01:43:10;12.90;99.90
20946;DHT22;10632;51.276;7.116;2022-10-16T01:45:42;12.90;99.90
20946;DHT22;10632;51.276;7.116;2022-10-16T01:48:17;12.90;99.90
20946;DHT22;10632;51.276;7.116;2022-10-16T01:51:01;12.90;99.90
20946;DHT22;10632;51.276;7.116;2022-10-16T01:53:33;12.90;99.90
20946;DHT22;10632;51.276;7.116;2022-10-16T01:56:04;12.90;99.90
20946;DHT22;10632;51.276;7.116;2022-10-16T01:58:40;12.90;99.90
20946;DHT22;10632;51.276;7.116;2022-10-16T02:01:10;12.80;99.90
20946;DHT22;10632;51.276;7.116;2022-10-16T02:03:45;12.80;99.90
20946;DHT22;10632;51.276;7.116;2022-10-16T02:06:13;12.80;99.90
20946;DHT22;10632;51.276;7.116;2022-10-16T02:08:40;12.80;99.90
20946;DHT22;10632;51.276;7.116;2022-10-16T02:11:12;12.80;99.90
20946;DHT22;10632;51.276;7.116;2022-10-16T02:13:45;12.80;99.90
20946;DHT22;10632;51.276;7.116;2022-10-16T02:16:17;12.80;99.90
20946;DHT22;10632;51.276;7.116;2022-10-16T02:18:44;12.90;99.90
20946;DHT22;10632;51.276;7.116;2022-10-16T02:21:15;12.80;99.90
20946;DHT22;10632;51.276;7.116;2022-10-16T02:23:52;12.80;99.90
20946;DHT22;10632;51.276;7.116;2022-10-16T02:26:27;12.80;99.90
20946;DHT22;10632;51.276;7.116;2022-10-16T02:29:06;12.80;99.90
20946;DHT22;10632;51.276;7.116;2022-10-16T02:31:41;12.80;99.90
20946;DHT22;10632;51.276;7.116;2022-10-16T02:34:11;12.90;99.90
20946;DHT22;10632;51.276;7.116;2022-10-16T02:36:40;12.90;99.90
20946;DHT22;10632;51.276;7.116;2022-10-16T02:39:11;12.90;99.90
20946;DHT22;10632;51.276;7.116;2022-10-16T02:41:41;12.90;99.90
20946;DHT22;10632;51.276;7.116;2022-10-16T02:44:19;12.90;99.90
20946;DHT22;10632;51.276;7.116;2022-10-16T02:46:48;12.90;99.90
20946;DHT22;10632;51.276;7.116;2022-10-16T02:49:15;12.90;99.90
20946;DHT22;10632;51.276;7.116;2022-10-16T02:51:43;12.90;99.90
20946;DHT22;10632;51.276;7.116;2022-10-16T02:54:10;12.90;99.90
20946;DHT22;10632;51.276;7.116;2022-10-16T02:56:38;12.90;99.90
20946;DHT22;10632;51.276;7.116;2022-10-16T02:59:05;12.90;99.90
20946;DHT22;10632;51.276;7.116;2022-10-16T03:01:33;12.90;99.90
20946;DHT22;10632;51.276;7.116;2022-10-16T03:04:00;12.90;99.90
20946;DHT22;10632;51.276;7.116;2022-10-16T03:06:27;12.90;99.90
20946;DHT22;10632;51.276;7.116;2022-10-16T03:08:54;12.90;99.90
20946;DHT22;10632;51.276;7.116;2022-10-16T03:11:20;12.90;99.90
20946;DHT22;10632;51.276;7.116;2022-10-16T03:13:47;12.90;99.90
20946;DHT22;10632;51.276;7.116;2022-10-16T03:16:14;12.90;99.90
20946;DHT22;10632;51.276;7.116;2022-10-16T03:18:42;12.90;99.90
20946;DHT22;10632;51.276;7.116;2022-10-16T03:21:12;12.90;99.90
20946;DHT22;10632;51.276;7.116;2022-10-16T03:23:39;12.90;99.90
20946;DHT22;10632;51.276;7.116;2022-10-16T03:26:06;12.90;99.90
20946;DHT22;10632;51.276;7.116;2022-10-16T03:28:33;12.90;99.90
20946;DHT22;10632;51.276;7.116;2022-10-16T03:30:59;12.90;99.90
20946;DHT22;10632;51.276;7.116;2022-10-16T03:33:26;12.90;99.90
20946;DHT22;10632;51.276;7.116;2022-10-16T03:35:54;12.90;99.90
20946;DHT22;10632;51.276;7.116;2022-10-16T03:38:22;12.80;99.90
20946;DHT22;10632;51.276;7.116;2022-10-16T03:40:48;12.80;99.90
20946;DHT22;10632;51.276;7.116;2022-10-16T03:43:15;12.90;99.90
20946;DHT22;10632;51.276;7.116;2022-10-16T03:45:43;12.80;99.90
20946;DHT22;10632;51.276;7.116;2022-10-16T03:48:09;12.80;99.90
20946;DHT22;10632;51.276;7.116;2022-10-16T03:50:36;12.80;99.90
20946;DHT22;10632;51.276;7.116;2022-10-16T03:53:05;12.80;99.90
20946;DHT22;10632;51.276;7.116;2022-10-16T03:55:31;12.80;99.90
20946;DHT22;10632;51.276;7.116;2022-10-16T03:57:58;12.80;99.90
20946;DHT22;10632;51.276;7.116;2022-10-16T04:00:25;12.80;99.90
20946;DHT22;10632;51.276;7.116;2022-10-16T04:02:52;12.80;99.90
20946;DHT22;10632;51.276;7.116;2022-10-16T04:05:19;12.80;99.90
20946;DHT22;10632;51.276;7.116;2022-10-16T04:07:46;12.80;99.90
20946;DHT22;10632;51.276;7.116;2022-10-16T04:10:14;12.80;99.90
20946;DHT22;10632;51.276;7.116;2022-10-16T04:12:41;12.80;99.90
20946;DHT22;10632;51.276;7.116;2022-10-16T04:15:08;12.80;99.90
20946;DHT22;10632;51.276;7.116;2022-10-16T04:17:35;12.80;99.90
20946;DHT22;10632;51.276;7.116;2022-10-16T04:20:06;12.70;99.90
20946;DHT22;10632;51.276;7.116;2022-10-16T04:22:33;12.70;99.90
20946;DHT22;10632;51.276;7.116;2022-10-16T04:25:02;12.70;99.90
20946;DHT22;10632;51.276;7.116;2022-10-16T04:27:30;12.70;99.90
20946;DHT22;10632;51.276;7.116;2022-10-16T04:29:58;12.70;99.90
20946;DHT22;10632;51.276;7.116;2022-10-16T04:32:25;12.70;99.90
20946;DHT22;10632;51.276;7.116;2022-10-16T04:34:52;12.70;99.90
20946;DHT22;10632;51.276;7.116;2022-10-16T04:37:23;12.70;99.90
20946;DHT22;10632;51.276;7.116;2022-10-16T04:39:50;12.60;99.90
20946;DHT22;10632;51.276;7.116;2022-10-16T04:42:17;12.60;99.90
20946;DHT22;10632;51.276;7.116;2022-10-16T04:44:45;12.60;99.90
20946;DHT22;10632;51.276;7.116;2022-10-16T04:47:12;12.60;99.90
20946;DHT22;10632;51.276;7.116;2022-10-16T04:49:39;12.60;99.90
20946;DHT22;10632;51.276;7.116;2022-10-16T04:52:06;12.60;99.90
20946;DHT22;10632;51.276;7.116;2022-10-16T04:54:35;12.60;99.90
20946;DHT22;10632;51.276;7.116;2022-10-16T04:57:04;12.60;99.90
20946;DHT22;10632;51.276;7.116;2022-10-16T04:59:31;12.60;99.90
20946;DHT22;10632;51.276;7.116;2022-10-16T05:02:03;12.50;99.90
20946;DHT22;10632;51.276;7.116;2022-10-16T05:04:30;12.60;99.90
20946;DHT22;10632;51.276;7.116;2022-10-16T05:06:57;12.50;99.90
20946;DHT22;10632;51.276;7.116;2022-10-16T05:09:24;12.50;99.90
20946;DHT22;10632;51.276;7.116;2022-10-16T05:11:50;12.50;99.90
20946;DHT22;10632;51.276;7.116;2022-10-16T05:14:17;12.50;99.90
20946;DHT22;10632;51.276;7.116;2022-10-16T05:16:44;12.50;99.90
20946;DHT22;10632;51.276;7.116;2022-10-16T05:19:16;12.50;99.90
20946;DHT22;10632;51.276;7.116;2022-10-16T05:21:43;12.40;99.90
20946;DHT22;10632;51.276;7.116;2022-10-16T05:24:09;12.50;99.90
20946;DHT22;10632;51.276;7.116;2022-10-16T05:26:36;12.40;99.90
20946;DHT22;10632;51.276;7.116;2022-10-16T05:29:04;12.40;99.90
20946;DHT22;10632;51.276;7.116;2022-10-16T05:31:33;12.40;99.90
20946;DHT22;10632;51.276;7.116;2022-10-16T05:34:00;12.40;99.90
20946;DHT22;10632;51.276;7.116;2022-10-16T05:36:29;12.50;99.90
20946;DHT22;10632;51.276;7.116;2022-10-16T05:38:56;12.40;99.90
20946;DHT22;10632;51.276;7.116;2022-10-16T05:41:23;12.50;99.90
20946;DHT22;10632;51.276;7.116;2022-10-16T05:43:51;12.40;99.90
20946;DHT22;10632;51.276;7.116;2022-10-16T05:46:19;12.40;99.90
20946;DHT22;10632;51.276;7.116;2022-10-16T05:48:51;12.40;99.90
20946;DHT22;10632;51.276;7.116;2022-10-16T05:51:18;12.40;99.90
20946;DHT22;10632;51.276;7.116;2022-10-16T05:53:46;12.40;99.90
20946;DHT22;10632;51.276;7.116;2022-10-16T05:56:13;12.40;99.90
20946;DHT22;10632;51.276;7.116;2022-10-16T05:58:41;12.40;99.90
20946;DHT22;10632;51.276;7.116;2022-10-16T06:01:11;12.40;99.90
20946;DHT22;10632;51.276;7.116;2022-10-16T06:03:38;12.40;99.90
20946;DHT22;10632;51.276;7.116;2022-10-16T06:06:09;12.40;99.90
20946;DHT22;10632;51.276;7.116;2022-10-16T06:08:37;12.40;99.90
20946;DHT22;10632;51.276;7.116;2022-10-16T06:11:09;12.40;99.90
20946;DHT22;10632;51.276;7.116;2022-10-16T06:13:37;12.40;99.90
20946;DHT22;10632;51.276;7.116;2022-10-16T06:16:05;12.40;99.90
20946;DHT22;10632;51.276;7.116;2022-10-16T06:18:33;12.40;99.90
20946;DHT22;10632;51.276;7.116;2022-10-16T06:21:07;12.40;99.90
20946;DHT22;10632;51.276;7.116;2022-10-16T06:23:34;12.50;99.90
20946;DHT22;10632;51.276;7.116;2022-10-16T06:26:05;12.50;99.90
20946;DHT22;10632;51.276;7.116;2022-10-16T06:28:33;12.50;99.90
20946;DHT22;10632;51.276;7.116;2022-10-16T06:31:01;12.50;99.90
20946;DHT22;10632;51.276;7.116;2022-10-16T06:33:28;12.50;99.90
20946;DHT22;10632;51.276;7.116;2022-10-16T06:36:00;12.60;99.90
20946;DHT22;10632;51.276;7.116;2022-10-16T06:38:31;12.60;99.90
20946;DHT22;10632;51.276;7.116;2022-10-16T06:40:58;12.60;99.90
20946;DHT22;10632;51.276;7.116;2022-10-16T06:43:25;12.60;99.90
20946;DHT22;10632;51.276;7.116;2022-10-16T06:45:55;12.60;99.90
20946;DHT22;10632;51.276;7.116;2022-10-16T06:48:23;12.70;99.90
20946;DHT22;10632;51.276;7.116;2022-10-16T06:50:57;12.70;99.90
20946;DHT22;10632;51.276;7.116;2022-10-16T06:53:24;12.70;99.90
20946;DHT22;10632;51.276;7.116;2022-10-16T06:55:51;12.80;99.90
20946;DHT22;10632;51.276;7.116;2022-10-16T06:58:18;12.80;99.90
20946;DHT22;10632;51.276;7.116;2022-10-16T07:00:45;12.80;99.90
20946;DHT22;10632;51.276;7.116;2022-10-16T07:03:13;12.80;99.90
20946;DHT22;10632;51.276;7.116;2022-10-16T07:05:41;12.90;99.90
20946;DHT22;10632;51.276;7.116;2022-10-16T07:08:09;12.90;99.90
20946;DHT22;10632;51.276;7.116;2022-10-16T07:10:35;13.00;99.90
20946;DHT22;10632;51.276;7.116;2022-10-16T07:13:02;13.00;99.90
20946;DHT22;10632;51.276;7.116;2022-10-16T07:15:29;13.10;99.90
20946;DHT22;10632;51.276;7.116;2022-10-16T07:17:56;13.20;99.90
20946;DHT22;10632;51.276;7.116;2022-10-16T07:20:24;13.20;99.90
20946;DHT22;10632;51.276;7.116;2022-10-16T07:22:52;13.30;99.90
20946;DHT22;10632;51.276;7.116;2022-10-16T07:25:19;13.30;99.90
20946;DHT22;10632;51.276;7.116;2022-10-16T07:27:46;13.30;99.90
20946;DHT22;10632;51.276;7.116;2022-10-16T07:30:13;13.30;99.90
20946;DHT22;10632;51.276;7.116;2022-10-16T07:32:39;13.30;99.90
20946;DHT22;10632;51.276;7.116;2022-10-16T07:35:07;13.30;99.90
20946;DHT22;10632;51.276;7.116;2022-10-16T07:37:35;13.30;99.90
20946;DHT22;10632;51.276;7.116;2022-10-16T07:40:03;13.30;99.90
20946;DHT22;10632;51.276;7.116;2022-10-16T07:42:30;13.30;99.90
20946;DHT22;10632;51.276;7.116;2022-10-16T07:44:57;13.30;99.90
20946;DHT22;10632;51.276;7.116;2022-10-16T07:47:24;13.30;99.90
20946;DHT22;10632;51.276;7.116;2022-10-16T07:49:50;13.30;99.90
20946;DHT22;10632;51.276;7.116;2022-10-16T07:52:17;13.30;99.90
20946;DHT22;10632;51.276;7.116;2022-10-16T07:54:45;13.30;99.90
20946;DHT22;10632;51.276;7.116;2022-10-16T07:57:12;13.30;99.90
20946;DHT22;10632;51.276;7.116;2022-10-16T07:59:44;13.30;99.90
20946;DHT22;10632;51.276;7.116;2022-10-16T08:02:14;13.30;99.90
20946;DHT22;10632;51.276;7.116;2022-10-16T08:04:41;13.40;99.90
20946;DHT22;10632;51.276;7.116;2022-10-16T08:07:08;13.30;99.90
20946;DHT22;10632;51.276;7.116;2022-10-16T08:09:35;13.40;99.90
20946;DHT22;10632;51.276;7.116;2022-10-16T08:12:03;13.50;99.90
20946;DHT22;10632;51.276;7.116;2022-10-16T08:14:30;13.60;99.90
20946;DHT22;10632;51.276;7.116;2022-10-16T08:16:57;13.60;99.90
20946;DHT22;10632;51.276;7.116;2022-10-16T08:19:24;13.70;99.90
20946;DHT22;10632;51.276;7.116;2022-10-16T08:21:51;13.80;99.90
20946;DHT22;10632;51.276;7.116;2022-10-16T08:24:18;13.80;99.90
20946;DHT22;10632;51.276;7.116;2022-10-16T08:26:45;13.90;99.90
20946;DHT22;10632;51.276;7.116;2022-10-16T08:29:14;13.90;99.90
20946;DHT22;10632;51.276;7.116;2022-10-16T08:31:41;14.00;99.90
20946;DHT22;10632;51.276;7.116;2022-10-16T08:34:08;14.00;99.90
20946;DHT22;10632;51.276;7.116;2022-10-16T08:36:35;14.00;99.90
20946;DHT22;10632;51.276;7.116;2022-10-16T08:39:02;14.10;99.90
20946;DHT22;10632;51.276;7.116;2022-10-16T08:41:50;14.20;99.90
20946;DHT22;10632;51.276;7.116;2022-10-16T08:44:50;14.20;99.90
20946;DHT22;10632;51.276;7.116;2022-10-16T08:47:23;14.30;99.90
20946;DHT22;10632;51.276;7.116;2022-10-16T08:49:56;14.40;99.90
20946;DHT22;10632;51.276;7.116;2022-10-16T08:52:28;14.50;99.90
20946;DHT22;10632;51.276;7.116;2022-10-16T08:54:56;14.40;99.90
20946;DHT22;10632;51.276;7.116;2022-10-16T08:57:25;14.40;99.90
20946;DHT22;10632;51.276;7.116;2022-10-16T08:59:54;14.50;99.90
20946;DHT22;10632;51.276;7.116;2022-10-16T09:02:31;14.50;99.90
20946;DHT22;10632;51.276;7.116;2022-10-16T09:05:08;14.60;99.90
20946;DHT22;10632;51.276;7.116;2022-10-16T09:07:44;14.60;99.90
20946;DHT22;10632;51.276;7.116;2022-10-16T09:10:22;14.60;99.90
20946;DHT22;10632;51.276;7.116;2022-10-16T09:12:55;14.70;99.90
20946;DHT22;10632;51.276;7.116;2022-10-16T09:15:31;14.80;99.90
20946;DHT22;10632;51.276;7.116;2022-10-16T09:18:09;14.80;99.90
20946;DHT22;10632;51.276;7.116;2022-10-16T09:20:48;14.90;99.90
20946;DHT22;10632;51.276;7.116;2022-10-16T09:23:17;14.90;99.90
20946;DHT22;10632;51.276;7.116;2022-10-16T09:25:49;15.00;99.90
20946;DHT22;10632;51.276;7.116;2022-10-16T09:28:16;15.10;99.90
20946;DHT22;10632;51.276;7.116;2022-10-16T09:30:45;15.10;99.90
20946;DHT22;10632;51.276;7.116;2022-10-16T09:33:14;15.20;99.90
20946;DHT22;10632;51.276;7.116;2022-10-16T09:35:44;15.30;99.90
20946;DHT22;10632;51.276;7.116;2022-10-16T09:38:22;15.30;99.90
20946;DHT22;10632;51.276;7.116;2022-10-16T09:40:49;15.30;99.90
20946;DHT22;10632;51.276;7.116;2022-10-16T09:43:21;15.30;99.90
20946;DHT22;10632;51.276;7.116;2022-10-16T09:46:03;15.30;99.90
20946;DHT22;10632;51.276;7.116;2022-10-16T09:48:37;15.30;99.90
20946;DHT22;10632;51.276;7.116;2022-10-16T09:51:05;15.20;99.90
20946;DHT22;10632;51.276;7.116;2022-10-16T09:53:42;15.30;99.90
20946;DHT22;10632;51.276;7.116;2022-10-16T09:56:11;15.30;99.90
20946;DHT22;10632;51.276;7.116;2022-10-16T09:58:42;15.30;99.90
20946;DHT22;10632;51.276;7.116;2022-10-16T10:01:14;15.40;99.90
20946;DHT22;10632;51.276;7.116;2022-10-16T10:03:43;15.60;99.90
20946;DHT22;10632;51.276;7.116;2022-10-16T10:06:21;15.70;99.90
20946;DHT22;10632;51.276;7.116;2022-10-16T10:09:02;15.90;99.90
20946;DHT22;10632;51.276;7.116;2022-10-16T10:11:41;16.00;99.90
20946;DHT22;10632;51.276;7.116;2022-10-16T10:14:17;16.10;99.90
20946;DHT22;10632;51.276;7.116;2022-10-16T10:16:45;16.20;99.90
20946;DHT22;10632;51.276;7.116;2022-10-16T10:19:15;16.30;99.90
20946;DHT22;10632;51.276;7.116;2022-10-16T10:21:46;16.50;99.90
20946;DHT22;10632;51.276;7.116;2022-10-16T10:24:14;16.60;99.90
20946;DHT22;10632;51.276;7.116;2022-10-16T10:26:48;16.70;99.90
20946;DHT22;10632;51.276;7.116;2022-10-16T10:29:32;16.70;99.90
20946;DHT22;10632;51.276;7.116;2022-10-16T10:32:14;16.80;99.90
20946;DHT22;10632;51.276;7.116;2022-10-16T10:35:05;17.00;99.90
20946;DHT22;10632;51.276;7.116;2022-10-16T10:37:45;17.30;99.90
20946;DHT22;10632;51.276;7.116;2022-10-16T10:40:39;17.50;99.90
20946;DHT22;10632;51.276;7.116;2022-10-16T10:43:16;17.50;99.90
20946;DHT22;10632;51.276;7.116;2022-10-16T10:45:48;17.50;99.90
20946;DHT22;10632;51.276;7.116;2022-10-16T10:48:46;17.60;99.90
20946;DHT22;10632;51.276;7.116;2022-10-16T10:51:19;17.80;99.90
20946;DHT22;10632;51.276;7.116;2022-10-16T10:53:52;18.00;99.90
20946;DHT22;10632;51.276;7.116;2022-10-16T10:56:40;18.20;99.90
20946;DHT22;10632;51.276;7.116;2022-10-16T10:59:29;18.20;99.90
20946;DHT22;10632;51.276;7.116;2022-10-16T11:02:00;18.30;99.90
20946;DHT22;10632;51.276;7.116;2022-10-16T11:04:45;18.40;99.90
20946;DHT22;10632;51.276;7.116;2022-10-16T11:07:17;18.50;99.90
20946;DHT22;10632;51.276;7.116;2022-10-16T11:09:49;18.60;99.90
20946;DHT22;10632;51.276;7.116;2022-10-16T11:12:20;18.60;99.90
20946;DHT22;10632;51.276;7.116;2022-10-16T11:14:50;18.50;99.90
20946;DHT22;10632;51.276;7.116;2022-10-16T11:17:25;18.60;99.90
20946;DHT22;10632;51.276;7.116;2022-10-16T11:19:58;18.60;99.90
20946;DHT22;10632;51.276;7.116;2022-10-16T11:22:32;18.60;99.90
20946;DHT22;10632;51.276;7.116;2022-10-16T11:25:05;18.60;99.90
20946;DHT22;10632;51.276;7.116;2022-10-16T11:27:41;18.70;99.90
20946;DHT22;10632;51.276;7.116;2022-10-16T11:30:16;18.90;99.90
20946;DHT22;10632;51.276;7.116;2022-10-16T11:32:54;19.10;99.90
20946;DHT22;10632;51.276;7.116;2022-10-16T11:35:32;19.30;99.90
20946;DHT22;10632;51.276;7.116;2022-10-16T11:38:03;19.40;99.90
20946;DHT22;10632;51.276;7.116;2022-10-16T11:40:38;19.40;99.90
20946;DHT22;10632;51.276;7.116;2022-10-16T11:43:14;19.50;99.90
20946;DHT22;10632;51.276;7.116;2022-10-16T11:45:46;19.70;99.90
20946;DHT22;10632;51.276;7.116;2022-10-16T11:48:22;19.80;99.90
20946;DHT22;10632;51.276;7.116;2022-10-16T11:50:53;19.60;99.90
20946;DHT22;10632;51.276;7.116;2022-10-16T11:53:29;19.40;99.90
20946;DHT22;10632;51.276;7.116;2022-10-16T11:56:01;19.00;99.90
20946;DHT22;10632;51.276;7.116;2022-10-16T11:58:32;18.90;99.90
20946;DHT22;10632;51.276;7.116;2022-10-16T12:01:10;19.00;99.90
20946;DHT22;10632;51.276;7.116;2022-10-16T12:03:47;19.20;99.90
20946;DHT22;10632;51.276;7.116;2022-10-16T12:06:25;19.30;99.90
20946;DHT22;10632;51.276;7.116;2022-10-16T12:08:54;19.40;99.90
20946;DHT22;10632;51.276;7.116;2022-10-16T12:11:36;19.40;99.90
20946;DHT22;10632;51.276;7.116;2022-10-16T12:14:17;19.30;99.90
20946;DHT22;10632;51.276;7.116;2022-10-16T12:16:53;19.20;99.90
20946;DHT22;10632;51.276;7.116;2022-10-16T12:19:21;19.20;99.90
20946;DHT22;10632;51.276;7.116;2022-10-16T12:21:51;19.30;99.90
20946;DHT22;10632;51.276;7.116;2022-10-16T12:24:33;19.60;99.90
20946;DHT22;10632;51.276;7.116;2022-10-16T12:27:01;20.10;99.90
20946;DHT22;10632;51.276;7.116;2022-10-16T12:29:33;20.60;99.90
20946;DHT22;10632;51.276;7.116;2022-10-16T12:32:01;20.90;99.90
20946;DHT22;10632;51.276;7.116;2022-10-16T12:34:35;20.90;99.90
20946;DHT22;10632;51.276;7.116;2022-10-16T12:37:14;20.90;99.90
20946;DHT22;10632;51.276;7.116;2022-10-16T12:39:42;21.30;99.90
20946;DHT22;10632;51.276;7.116;2022-10-16T12:42:30;21.70;99.90
20946;DHT22;10632;51.276;7.116;2022-10-16T12:44:58;22.00;99.90
20946;DHT22;10632;51.276;7.116;2022-10-16T12:47:36;22.10;99.90
20946;DHT22;10632;51.276;7.116;2022-10-16T12:50:24;22.30;99.90
20946;DHT22;10632;51.276;7.116;2022-10-16T12:52:53;22.80;99.90
20946;DHT22;10632;51.276;7.116;2022-10-16T12:55:23;23.20;99.90
20946;DHT22;10632;51.276;7.116;2022-10-16T12:58:06;23.60;99.90
20946;DHT22;10632;51.276;7.116;2022-10-16T13:00:42;23.70;99.90
20946;DHT22;10632;51.276;7.116;2022-10-16T13:03:40;23.30;99.90
20946;DHT22;10632;51.276;7.116;2022-10-16T13:06:20;22.50;99.90
20946;DHT22;10632;51.276;7.116;2022-10-16T13:09:09;21.70;99.90
20946;DHT22;10632;51.276;7.116;2022-10-16T13:11:56;20.90;99.90
20946;DHT22;10632;51.276;7.116;2022-10-16T13:14:56;20.30;99.90
20946;DHT22;10632;51.276;7.116;2022-10-16T13:17:31;19.80;99.90
20946;DHT22;10632;51.276;7.116;2022-10-16T13:20:14;19.40;99.90
20946;DHT22;10632;51.276;7.116;2022-10-16T13:22:55;19.00;99.90
20946;DHT22;10632;51.276;7.116;2022-10-16T13:25:45;18.90;99.90
20946;DHT22;10632;51.276;7.116;2022-10-16T13:28:21;19.00;99.90
20946;DHT22;10632;51.276;7.116;2022-10-16T13:30:52;19.30;99.90
20946;DHT22;10632;51.276;7.116;2022-10-16T13:33:25;19.80;99.90
20946;DHT22;10632;51.276;7.116;2022-10-16T13:35:57;20.30;99.90
20946;DHT22;10632;51.276;7.116;2022-10-16T13:38:25;20.40;99.90
20946;DHT22;10632;51.276;7.116;2022-10-16T13:40:57;20.20;99.90
20946;DHT22;10632;51.276;7.116;2022-10-16T13:43:28;19.90;99.90
20946;DHT22;10632;51.276;7.116;2022-10-16T13:46:00;19.60;99.90
20946;DHT22;10632;51.276;7.116;2022-10-16T13:48:29;19.30;99.90
20946;DHT22;10632;51.276;7.116;2022-10-16T13:51:02;19.20;99.90
20946;DHT22;10632;51.276;7.116;2022-10-16T13:53:31;19.00;99.90
20946;DHT22;10632;51.276;7.116;2022-10-16T13:56:02;18.90;99.90
20946;DHT22;10632;51.276;7.116;2022-10-16T13:58:33;18.70;99.90
20946;DHT22;10632;51.276;7.116;2022-10-16T14:01:02;18.60;99.90
20946;DHT22;10632;51.276;7.116;2022-10-16T14:03:31;18.60;99.90
20946;DHT22;10632;51.276;7.116;2022-10-16T14:06:01;18.60;99.90
20946;DHT22;10632;51.276;7.116;2022-10-16T14:08:30;18.50;99.90
20946;DHT22;10632;51.276;7.116;2022-10-16T14:11:00;18.50;99.90
20946;DHT22;10632;51.276;7.116;2022-10-16T14:13:31;18.50;99.90
20946;DHT22;10632;51.276;7.116;2022-10-16T14:16:04;18.40;99.90
20946;DHT22;10632;51.276;7.116;2022-10-16T14:18:36;18.40;99.90
20946;DHT22;10632;51.276;7.116;2022-10-16T14:21:11;18.40;99.90
20946;DHT22;10632;51.276;7.116;2022-10-16T14:23:40;18.30;99.90
20946;DHT22;10632;51.276;7.116;2022-10-16T14:26:20;18.30;99.90
20946;DHT22;10632;51.276;7.116;2022-10-16T14:29:00;18.20;99.90
20946;DHT22;10632;51.276;7.116;2022-10-16T14:31:30;18.10;99.90
20946;DHT22;10632;51.276;7.116;2022-10-16T14:33:59;18.10;99.90
20946;DHT22;10632;51.276;7.116;2022-10-16T14:36:27;18.00;99.90
20946;DHT22;10632;51.276;7.116;2022-10-16T14:39:02;18.00;99.90
20946;DHT22;10632;51.276;7.116;2022-10-16T14:41:33;17.90;99.90
20946;DHT22;10632;51.276;7.116;2022-10-16T14:44:11;17.90;99.90
20946;DHT22;10632;51.276;7.116;2022-10-16T14:46:40;17.80;99.90
20946;DHT22;10632;51.276;7.116;2022-10-16T14:49:16;17.80;99.90
20946;DHT22;10632;51.276;7.116;2022-10-16T14:51:46;17.70;99.90
20946;DHT22;10632;51.276;7.116;2022-10-16T14:54:16;17.60;99.90
20946;DHT22;10632;51.276;7.116;2022-10-16T14:56:51;17.50;99.90
20946;DHT22;10632;51.276;7.116;2022-10-16T14:59:25;17.40;99.90
20946;DHT22;10632;51.276;7.116;2022-10-16T15:01:54;17.40;99.90
20946;DHT22;10632;51.276;7.116;2022-10-16T15:04:21;17.30;99.90
20946;DHT22;10632;51.276;7.116;2022-10-16T15:06:49;17.30;99.90
20946;DHT22;10632;51.276;7.116;2022-10-16T15:09:16;17.30;99.90
20946;DHT22;10632;51.276;7.116;2022-10-16T15:11:49;17.30;99.90
20946;DHT22;10632;51.276;7.116;2022-10-16T15:14:17;17.40;99.90
20946;DHT22;10632;51.276;7.116;2022-10-16T15:16:48;17.40;99.90
20946;DHT22;10632;51.276;7.116;2022-10-16T15:19:17;17.40;99.90
20946;DHT22;10632;51.276;7.116;2022-10-16T15:21:44;17.40;99.90
20946;DHT22;10632;51.276;7.116;2022-10-16T15:24:14;17.50;99.90
20946;DHT22;10632;51.276;7.116;2022-10-16T15:26:42;17.40;99.90
20946;DHT22;10632;51.276;7.116;2022-10-16T15:29:13;17.40;99.90
20946;DHT22;10632;51.276;7.116;2022-10-16T15:31:40;17.40;99.90
20946;DHT22;10632;51.276;7.116;2022-10-16T15:34:11;17.40;99.90
20946;DHT22;10632;51.276;7.116;2022-10-16T15:36:39;17.40;99.90
20946;DHT22;10632;51.276;7.116;2022-10-16T15:39:12;17.30;99.90
20946;DHT22;10632;51.276;7.116;2022-10-16T15:41:39;17.30;99.90
20946;DHT22;10632;51.276;7.116;2022-10-16T15:44:07;17.20;99.90
20946;DHT22;10632;51.276;7.116;2022-10-16T15:46:35;17.20;99.90
20946;DHT22;10632;51.276;7.116;2022-10-16T15:49:04;17.10;99.90
20946;DHT22;10632;51.276;7.116;2022-10-16T15:51:31;17.00;99.90
20946;DHT22;10632;51.276;7.116;2022-10-16T15:53:59;16.90;99.90
20946;DHT22;10632;51.276;7.116;2022-10-16T15:56:28;16.90;99.90